Time;durP1;ratioP1;P1;durP2;ratioP2;P2;SDS_P1;SDS_P2;PMS_P1;PMS_P2;Temp;Humidity;BMP_temperature;BMP_pressure;BME280_temperature;BME280_humidity;BME280_pressure;Samples;Min_cycle;Max_cycle;Signal;HPM_P1;HPM_P2
2021/06/09 12:33:38;;;;;;;13.70;5.82;;;;;;;25.64;40.09;99203.16;5160695;27;20341;-57
2021/06/09 12:36:08;;;;;;;15.10;5.45;;;;;;;25.73;39.88;99201.69;5166296;27;20039;-61
2021/06/09 12:38:36;;;;;;;12.27;4.95;;;;;;;25.85;40.05;99194.63;5166061;27;20074;-61
2021/06/09 12:41:02;;;;;;;10.80;5.63;;;;;;;25.99;39.95;99185.69;5130352;28;20046;-61
2021/06/09 12:43:29;;;;;;;8.05;4.82;;;;;;;26.11;39.57;99188.34;5130349;28;20493;-60
2021/06/09 12:45:55;;;;;;;9.63;5.55;;;;;;;26.24;39.28;99188.31;5130257;28;20044;-60
2021/06/09 12:48:21;;;;;;;7.45;4.57;;;;;;;26.38;38.88;99186.47;5135444;27;20054;-60
2021/06/09 12:50:49;;;;;;;11.68;5.35;;;;;;;26.47;38.46;99188.47;5145268;27;20050;-61
2021/06/09 12:53:16;;;;;;;12.00;5.32;;;;;;;26.56;38.85;99186.94;5151096;27;20047;-61
2021/06/09 12:55:43;;;;;;;9.52;5.03;;;;;;;26.59;38.21;99184.09;5151180;27;20039;-61
2021/06/09 12:58:10;;;;;;;10.20;5.05;;;;;;;26.64;38.03;99187.28;5140835;27;20054;-61
2021/06/09 13:00:38;;;;;;;7.60;4.53;;;;;;;26.66;37.88;99188.03;5139497;27;20528;-61
2021/06/09 13:03:25;;;;;;;8.77;5.43;;;;;;;26.73;37.05;99181.25;5141260;27;20050;-61
2021/06/09 13:05:58;;;;;;;8.77;5.00;;;;;;;26.81;37.38;99176.22;5129915;28;20055;-61
2021/06/09 13:08:25;;;;;;;10.90;5.20;;;;;;;26.86;37.03;99174.03;5002332;27;20040;-60
2021/06/09 13:10:52;;;;;;;7.93;4.90;;;;;;;26.94;36.94;99169.94;5045941;28;69073;-60
2021/06/09 13:13:19;;;;;;;9.85;5.20;;;;;;;27.01;36.69;99163.16;4948884;27;20513;-61
2021/06/09 13:15:50;;;;;;;9.00;4.70;;;;;;;27.08;36.72;99162.59;5090675;28;20044;-61
2021/06/09 13:18:32;;;;;;;6.32;4.43;;;;;;;27.18;35.96;99152.03;5088914;28;20040;-61
2021/06/09 13:21:11;;;;;;;7.13;4.47;;;;;;;27.24;35.85;99150.72;5088940;28;20040;-61
2021/06/09 13:23:37;;;;;;;7.50;5.00;;;;;;;27.27;36.04;99143.31;5089145;28;20142;-61
2021/06/09 13:26:05;;;;;;;7.40;4.30;;;;;;;27.36;36.06;99149.81;5089067;28;20048;-61
2021/06/09 13:28:32;;;;;;;7.57;4.70;;;;;;;27.44;36.43;99149.22;5088696;28;20044;-61
2021/06/09 13:30:58;;;;;;;10.23;4.80;;;;;;;27.47;35.61;99155.19;5088724;28;20403;-61
2021/06/09 13:33:24;;;;;;;7.93;4.47;;;;;;;27.53;35.78;99153.88;5088645;28;20040;-60
2021/06/09 13:35:50;;;;;;;8.02;4.90;;;;;;;27.57;36.71;99152.66;5088559;28;20158;-61
2021/06/09 13:38:19;;;;;;;6.95;4.53;;;;;;;27.62;35.67;99155.78;5088603;28;20052;-61
2021/06/09 13:40:45;;;;;;;8.05;4.68;;;;;;;27.68;35.61;99160.69;5088424;28;20047;-61
2021/06/09 13:43:12;;;;;;;6.75;4.55;;;;;;;27.75;35.97;99152.19;5083676;28;20056;-60
2021/06/09 13:45:39;;;;;;;7.60;4.78;;;;;;;27.73;34.42;99151.44;5075418;28;20078;-60
2021/06/09 13:48:06;;;;;;;9.98;4.60;;;;;;;27.78;34.64;99152.78;5074958;28;20040;-60
2021/06/09 13:50:32;;;;;;;8.15;4.68;;;;;;;27.85;34.92;99134.41;5075271;28;20049;-60
2021/06/09 13:53:00;;;;;;;7.25;4.50;;;;;;;27.90;34.96;99132.25;5073599;28;20048;-60
2021/06/09 13:55:28;;;;;;;8.02;4.72;;;;;;;27.88;33.65;99136.88;5073888;28;20083;-60
2021/06/09 13:57:54;;;;;;;8.70;4.80;;;;;;;27.93;33.88;99134.69;5074146;28;20106;-60
2021/06/09 14:00:21;;;;;;;8.75;4.80;;;;;;;27.97;33.94;99129.94;5070640;28;20075;-60
2021/06/09 14:02:48;;;;;;;9.32;4.80;;;;;;;28.03;34.46;99127.63;5074614;28;20044;-60
2021/06/09 14:05:16;;;;;;;8.70;4.50;;;;;;;28.12;35.42;99125.19;5074676;28;20110;-59
2021/06/09 14:07:44;;;;;;;13.77;5.32;;;;;;;28.14;33.81;99128.59;5073284;28;20056;-61
2021/06/09 14:10:11;;;;;;;12.98;4.90;;;;;;;28.25;34.17;99120.53;5074655;28;20407;-61
2021/06/09 14:12:39;;;;;;;10.23;4.75;;;;;;;28.27;33.92;99127.47;5074593;28;20049;-61
2021/06/09 14:15:10;;;;;;;13.65;5.05;;;;;;;28.25;33.21;99132.09;5073684;28;20047;-63
2021/06/09 14:17:36;;;;;;;16.00;5.18;;;;;;;28.26;34.20;99125.75;5074136;28;20135;-64
2021/06/09 14:20:06;;;;;;;10.95;5.15;;;;;;;28.27;33.21;99118.59;5073826;28;20048;-62
2021/06/09 14:22:33;;;;;;;9.30;4.82;;;;;;;28.37;33.81;99124.03;5074482;28;20052;-62
2021/06/09 14:25:06;;;;;;;8.10;4.93;;;;;;;28.37;32.36;99114.16;5074051;28;20094;-62
2021/06/09 14:27:33;;;;;;;9.25;5.10;;;;;;;28.40;33.06;99124.66;5054236;28;20099;-61
2021/06/09 14:30:11;;;;;;;7.68;4.70;;;;;;;28.46;32.74;99129.50;5073325;28;20082;-63
2021/06/09 14:33:07;;;;;;;11.18;4.90;;;;;;;28.48;32.49;99119.50;5083256;28;20052;-63
2021/06/09 14:35:40;;;;;;;8.68;4.55;;;;;;;28.53;32.86;99118.31;5080935;28;20040;-63
2021/06/09 14:38:14;;;;;;;6.85;4.40;;;;;;;28.64;33.54;99120.94;5089115;28;20048;-64
2021/06/09 14:40:40;;;;;;;8.30;4.78;;;;;;;28.64;32.69;99121.78;5075230;28;20044;-62
2021/06/09 14:43:07;;;;;;;9.35;4.70;;;;;;;28.58;32.32;99122.31;5073789;28;20048;-64
2021/06/09 14:45:35;;;;;;;6.57;4.25;;;;;;;28.69;33.32;99112.50;5073616;28;20509;-64
2021/06/09 14:48:16;;;;;;;7.68;4.68;;;;;;;28.73;33.01;99104.09;5073865;28;20048;-63
2021/06/09 14:50:42;;;;;;;7.18;4.13;;;;;;;28.81;33.22;99104.31;5073549;28;20055;-62
2021/06/09 14:53:09;;;;;;;9.13;5.00;;;;;;;28.84;32.00;99116.59;5073419;28;20503;-63
2021/06/09 14:55:35;;;;;;;8.73;4.35;;;;;;;28.93;32.74;99105.09;5079425;28;20123;-60
2021/06/09 14:58:02;;;;;;;7.20;4.50;;;;;;;28.96;31.58;99107.50;5072786;28;20048;-61
2021/06/09 15:00:28;;;;;;;9.02;4.40;;;;;;;29.09;32.52;99103.81;5073526;28;20049;-61
2021/06/09 15:02:55;;;;;;;8.80;4.85;;;;;;;29.12;32.46;99116.94;5073819;28;20114;-62
2021/06/09 15:05:22;;;;;;;6.68;4.20;;;;;;;29.15;31.92;99111.34;5073141;28;20101;-61
2021/06/09 15:07:49;;;;;;;11.73;4.95;;;;;;;29.14;31.70;99105.16;5073472;28;20044;-60
2021/06/09 15:10:15;;;;;;;8.52;4.50;;;;;;;29.11;31.01;99112.56;5072719;28;20048;-61
2021/06/09 15:12:41;;;;;;;10.23;4.75;;;;;;;29.12;31.23;99107.13;5078709;28;20071;-62
2021/06/09 15:15:08;;;;;;;9.40;4.25;;;;;;;29.15;31.44;99104.16;5080574;28;20446;-62
2021/06/09 15:17:34;;;;;;;137.20;40.58;;;;;;;29.16;31.27;99108.53;5081397;28;20043;-62
2021/06/09 15:20:02;;;;;;;72.57;25.15;;;;;;;29.22;31.19;99109.84;5077267;28;20044;-61
2021/06/09 15:22:29;;;;;;;40.65;15.60;;;;;;;29.24;31.88;99107.88;5073132;28;20048;-61
2021/06/09 15:24:55;;;;;;;43.10;15.70;;;;;;;29.21;31.07;99103.63;5072979;28;20041;-63
2021/06/09 15:27:21;;;;;;;39.38;14.95;;;;;;;29.21;30.89;99105.47;5072482;28;20048;-63
2021/06/09 15:29:49;;;;;;;29.25;11.68;;;;;;;29.29;31.83;99110.16;5072662;28;20040;-62
2021/06/09 15:32:15;;;;;;;29.27;11.43;;;;;;;29.27;30.87;99104.94;5072328;28;20506;-61
2021/06/09 15:34:41;;;;;;;39.05;10.98;;;;;;;29.28;31.06;99103.13;5072710;28;20048;-62
2021/06/09 15:37:09;;;;;;;23.02;10.07;;;;;;;29.28;30.43;99101.28;5035643;27;20142;-64
2021/06/09 15:39:35;;;;;;;19.63;8.90;;;;;;;29.31;31.17;99098.31;5082724;28;20036;-64
2021/06/09 15:42:01;;;;;;;19.05;8.43;;;;;;;29.33;31.54;99096.34;5083083;28;20048;-64
2021/06/09 15:44:28;;;;;;;17.45;7.50;;;;;;;29.35;31.51;99093.53;5081636;28;20119;-63
2021/06/09 15:46:54;;;;;;;18.23;7.40;;;;;;;29.31;30.21;99100.16;5082546;28;20047;-65
2021/06/09 15:49:23;;;;;;;21.13;7.55;;;;;;;29.31;31.08;99092.94;5083020;28;20040;-63
2021/06/09 15:51:49;;;;;;;15.70;6.05;;;;;;;29.35;31.15;99098.91;5078719;28;20044;-65
2021/06/09 15:54:17;;;;;;;15.75;6.22;;;;;;;29.36;31.00;99101.47;5082692;28;20040;-65
2021/06/09 15:56:43;;;;;;;12.85;6.10;;;;;;;29.32;30.35;99099.19;5082884;28;20486;-65
2021/06/09 15:59:09;;;;;;;11.10;5.75;;;;;;;29.34;30.72;99102.59;5078430;28;20398;-65
2021/06/09 16:01:36;;;;;;;11.38;6.00;;;;;;;29.21;29.96;99098.25;5082478;28;20044;-65
2021/06/09 16:04:02;;;;;;;10.05;5.72;;;;;;;29.21;30.89;99105.47;5082868;28;20047;-64
2021/06/09 16:06:28;;;;;;;10.48;5.50;;;;;;;29.16;31.19;99111.22;5080416;28;20044;-64
2021/06/09 16:08:54;;;;;;;11.25;5.22;;;;;;;29.08;30.31;99118.19;5072012;28;20036;-63
2021/06/09 16:11:22;;;;;;;9.90;5.40;;;;;;;29.06;31.12;99112.94;5067943;28;20044;-66
2021/06/09 16:13:48;;;;;;;10.15;4.78;;;;;;;29.02;31.54;99114.19;5077361;28;20051;-66
2021/06/09 16:16:14;;;;;;;9.55;4.95;;;;;;;28.97;31.48;99111.91;5082890;28;20048;-66
2021/06/09 16:18:41;;;;;;;7.68;4.57;;;;;;;28.90;31.43;99115.22;5074465;28;20045;-65
2021/06/09 16:21:07;;;;;;;8.25;4.78;;;;;;;28.80;30.45;99116.00;5077703;28;20043;-65
2021/06/09 16:23:35;;;;;;;9.90;4.40;;;;;;;28.76;31.42;99114.56;5085864;28;20106;-64
2021/06/09 16:26:01;;;;;;;7.28;4.38;;;;;;;28.62;30.87;99123.75;5082109;28;20052;-64
2021/06/09 16:28:29;;;;;;;14.07;4.50;;;;;;;28.62;31.72;99120.22;5070685;28;20048;-64
2021/06/09 16:30:55;;;;;;;8.48;4.50;;;;;;;28.59;31.51;99126.66;5052425;28;20045;-63
2021/06/09 16:33:21;;;;;;;8.75;4.28;;;;;;;28.50;31.26;99122.06;5052127;28;20045;-66
2021/06/09 16:35:48;;;;;;;7.10;4.20;;;;;;;28.52;31.57;99132.66;5051717;28;20045;-66
2021/06/09 16:38:14;;;;;;;9.40;4.78;;;;;;;28.43;31.59;99129.75;5052356;28;20052;-64
2021/06/09 16:40:42;;;;;;;8.43;4.78;;;;;;;28.41;31.64;99130.84;5052117;28;20049;-63
2021/06/09 16:43:08;;;;;;;7.95;4.20;;;;;;;28.36;31.82;99122.31;5052179;28;20045;-66
2021/06/09 16:45:36;;;;;;;8.20;4.15;;;;;;;28.33;32.38;99130.63;5052106;28;20442;-67
2021/06/09 16:48:02;;;;;;;6.38;4.00;;;;;;;28.31;32.34;99132.59;5052097;28;20147;-65
2021/06/09 16:50:28;;;;;;;8.60;4.63;;;;;;;28.28;32.28;99122.94;5051652;28;20647;-67
2021/06/09 16:52:54;;;;;;;6.85;4.22;;;;;;;28.26;32.10;99133.78;5051685;28;20057;-63
2021/06/09 16:55:25;;;;;;;9.45;4.60;;;;;;;28.22;32.13;99140.38;5051799;28;20049;-65
2021/06/09 17:00:36;;;;;;;;;;;;;;;28.12;31.73;99138.56;5051978;28;20044;-64
2021/06/09 17:03:03;;;;;;;9.00;3.75;;;;;;;28.07;32.53;99145.16;5051816;28;19921;-63
2021/06/09 17:05:29;;;;;;;6.97;4.60;;;;;;;28.00;32.21;99148.44;5051655;28;20045;-63
2021/06/09 17:07:55;;;;;;;7.43;4.18;;;;;;;27.96;32.44;99136.28;5051622;28;20491;-67
2021/06/09 17:10:21;;;;;;;7.32;4.20;;;;;;;27.91;32.10;99135.78;5050630;28;20507;-64
2021/06/09 17:12:48;;;;;;;5.88;4.03;;;;;;;27.81;31.79;99140.97;5051433;28;20049;-66
2021/06/09 17:15:14;;;;;;;7.93;4.60;;;;;;;27.74;32.24;99142.44;5051863;28;20091;-67
2021/06/09 17:17:42;;;;;;;6.35;4.47;;;;;;;27.70;32.26;99152.53;5051339;28;20045;-65
2021/06/09 17:20:09;;;;;;;6.97;4.38;;;;;;;27.61;32.57;99153.25;5054954;28;20045;-64
2021/06/09 17:22:35;;;;;;;6.85;4.45;;;;;;;27.56;32.73;99150.94;5055582;28;20095;-64
2021/06/09 17:25:02;;;;;;;6.93;4.50;;;;;;;27.57;32.93;99151.78;5055649;28;20045;-65
2021/06/09 17:27:28;;;;;;;8.85;4.90;;;;;;;27.48;32.82;99158.72;5055041;28;20491;-62
2021/06/09 17:29:54;;;;;;;7.95;4.68;;;;;;;27.43;33.10;99158.19;5054917;28;20053;-62
2021/06/09 17:32:20;;;;;;;9.25;5.07;;;;;;;27.43;33.05;99158.19;5055032;28;20130;-62
2021/06/09 17:34:48;;;;;;;9.10;4.28;;;;;;;27.42;33.19;99160.03;5055034;28;20052;-64
2021/06/09 17:37:14;;;;;;;8.95;4.28;;;;;;;27.41;32.79;99157.47;5054079;28;20049;-64
2021/06/09 17:39:40;;;;;;;8.52;4.40;;;;;;;27.40;33.41;99155.78;5055021;28;20117;-65
2021/06/09 17:42:08;;;;;;;8.23;4.55;;;;;;;27.36;32.99;99159.66;5054817;28;20491;-65
2021/06/09 17:44:34;;;;;;;6.78;4.13;;;;;;;27.35;33.43;99161.47;5055120;28;20045;-63
2021/06/09 17:47:00;;;;;;;7.53;4.50;;;;;;;27.27;33.34;99167.41;5078406;28;20041;-62
2021/06/09 17:49:29;;;;;;;8.75;4.57;;;;;;;27.26;33.27;99164.88;5073655;28;20036;-63
2021/06/09 17:51:56;;;;;;;10.70;4.43;;;;;;;27.21;33.43;99165.16;5073188;28;20044;-62
2021/06/09 17:54:22;;;;;;;9.57;4.95;;;;;;;27.18;33.60;99173.44;5070423;28;20056;-63
2021/06/09 17:56:49;;;;;;;6.90;4.30;;;;;;;27.15;33.31;99168.31;5074975;28;20066;-65
2021/06/09 17:59:16;;;;;;;6.95;4.20;;;;;;;27.12;33.73;99173.88;5074937;28;20044;-65
2021/06/09 18:01:45;;;;;;;6.15;4.00;;;;;;;27.12;33.71;99165.84;5074913;28;20095;-66
2021/06/09 18:04:14;;;;;;;8.10;4.38;;;;;;;27.08;33.84;99169.75;5074455;28;20461;-64
2021/06/09 18:06:41;;;;;;;6.57;4.43;;;;;;;27.05;33.63;99172.66;5074332;28;20486;-64
2021/06/09 18:09:08;;;;;;;7.30;4.00;;;;;;;27.02;33.41;99178.22;5074083;28;20048;-65
2021/06/09 18:11:34;;;;;;;7.97;4.05;;;;;;;27.01;33.36;99176.53;5074238;28;20041;-64
2021/06/09 18:14:01;;;;;;;9.75;4.63;;;;;;;26.98;33.86;99179.44;5074619;28;20048;-64
2021/06/09 18:16:27;;;;;;;8.27;4.05;;;;;;;26.91;33.69;99182.56;5074361;28;20051;-64
2021/06/09 18:18:53;;;;;;;6.40;4.00;;;;;;;26.87;33.55;99180.22;5073957;28;20565;-61
2021/06/09 18:21:20;;;;;;;6.18;3.50;;;;;;;26.84;33.65;99181.31;5074245;28;20048;-62
2021/06/09 18:23:46;;;;;;;7.03;3.92;;;;;;;26.81;33.84;99180.69;5074536;28;20132;-62
2021/06/09 18:26:14;;;;;;;7.90;3.80;;;;;;;26.79;33.57;99171.94;5074023;28;20106;-62
2021/06/09 18:28:40;;;;;;;6.72;3.90;;;;;;;26.75;33.57;99171.28;5073977;28;20044;-68
2021/06/09 18:31:06;;;;;;;6.00;3.60;;;;;;;26.68;33.70;99173.59;5073751;28;20048;-64
2021/06/09 18:33:32;;;;;;;8.02;4.00;;;;;;;26.64;33.72;99176.59;5073519;28;20484;-62
2021/06/09 18:35:59;;;;;;;7.70;4.07;;;;;;;26.58;33.73;99177.88;5073723;28;20052;-64
2021/06/09 18:38:25;;;;;;;7.20;4.05;;;;;;;26.55;33.85;99179.91;5073818;28;20486;-63
2021/06/09 18:40:52;;;;;;;6.25;3.70;;;;;;;26.49;34.12;99187.41;5070250;28;20056;-63
2021/06/09 18:43:20;;;;;;;6.65;3.75;;;;;;;26.44;34.28;99186.03;5073723;28;20045;-63
2021/06/09 18:45:47;;;;;;;6.50;3.80;;;;;;;26.39;34.40;99196.22;5073930;28;20047;-63
2021/06/09 18:48:14;;;;;;;6.88;4.00;;;;;;;26.33;34.48;99189.50;5073757;28;20076;-63
2021/06/09 18:50:40;;;;;;;5.82;3.80;;;;;;;26.29;34.62;99190.69;5073435;28;20495;-63
2021/06/09 18:53:07;;;;;;;8.30;4.13;;;;;;;26.28;35.08;99197.81;5072590;28;20068;-64
2021/06/09 18:55:35;;;;;;;8.85;4.53;;;;;;;26.22;34.96;99202.75;5073962;28;20049;-64
2021/06/09 18:58:02;;;;;;;7.50;4.10;;;;;;;26.19;35.31;99205.63;5073782;28;20040;-63
2021/06/09 19:00:31;;;;;;;6.93;4.07;;;;;;;26.18;34.98;99206.59;5073548;28;20049;-60
2021/06/09 19:02:58;;;;;;;9.02;4.57;;;;;;;26.15;35.30;99205.00;5072532;28;20544;-61
2021/06/09 19:05:24;;;;;;;8.38;4.18;;;;;;;26.10;35.09;99210.66;5073222;28;20090;-62
2021/06/09 19:07:51;;;;;;;7.43;4.18;;;;;;;26.09;35.40;99211.66;5073558;28;20044;-61
2021/06/09 19:10:18;;;;;;;5.65;3.95;;;;;;;26.03;35.18;99221.88;5073435;28;20098;-60
2021/06/09 19:12:44;;;;;;;7.90;4.47;;;;;;;25.94;35.68;99207.38;5073427;28;20041;-61
2021/06/09 19:15:12;;;;;;;8.40;4.35;;;;;;;25.87;35.50;99217.59;5073691;28;20052;-61
2021/06/09 19:17:41;;;;;;;19.85;4.72;;;;;;;25.83;35.97;99215.25;5072964;28;20048;-61
2021/06/09 19:20:08;;;;;;;10.38;4.70;;;;;;;25.88;35.95;99218.44;5073590;28;20052;-61
2021/06/09 19:22:35;;;;;;;8.20;4.72;;;;;;;25.91;36.09;99229.78;5073043;28;20060;-61
2021/06/09 19:25:01;;;;;;;8.05;4.45;;;;;;;25.93;36.09;99224.34;5073216;28;20048;-62
2021/06/09 19:27:27;;;;;;;9.70;4.10;;;;;;;25.95;35.98;99224.25;5072864;28;20383;-61
2021/06/09 19:29:54;;;;;;;9.40;4.32;;;;;;;25.97;36.07;99227.66;5072826;28;20044;-60
2021/06/09 19:32:20;;;;;;;10.35;4.60;;;;;;;25.98;36.28;99222.22;5071574;28;20079;-63
2021/06/09 19:34:48;;;;;;;9.38;4.60;;;;;;;25.99;36.23;99225.75;5073163;28;20044;-63
2021/06/09 19:37:14;;;;;;;9.38;4.50;;;;;;;26.00;36.03;99222.97;5072791;28;20048;-62
2021/06/09 19:39:40;;;;;;;7.57;4.60;;;;;;;26.01;36.05;99226.47;5084065;28;20560;-60
2021/06/09 19:42:08;;;;;;;11.20;4.60;;;;;;;25.98;35.97;99224.88;5084573;28;20040;-61
2021/06/09 19:44:34;;;;;;;8.93;4.40;;;;;;;26.00;35.90;99225.63;5078738;28;20040;-61
2021/06/09 19:47:01;;;;;;;7.28;4.32;;;;;;;26.00;36.09;99233.66;5080290;28;20049;-61
2021/06/09 19:49:27;;;;;;;8.85;5.05;;;;;;;25.99;36.12;99231.91;5079459;28;20048;-60
2021/06/09 19:51:55;;;;;;;8.90;4.75;;;;;;;25.99;36.29;99228.41;5078034;28;20044;-61
2021/06/09 19:54:23;;;;;;;8.98;4.50;;;;;;;25.98;35.96;99234.69;5081518;28;20040;-60
2021/06/09 19:56:49;;;;;;;8.93;4.35;;;;;;;25.98;36.00;99232.03;5082466;28;20074;-61
2021/06/09 19:59:15;;;;;;;8.75;4.80;;;;;;;25.96;35.79;99226.81;5076661;28;20449;-61
2021/06/09 20:01:41;;;;;;;8.20;4.55;;;;;;;25.94;35.86;99223.41;5082880;28;20409;-62
2021/06/09 20:04:07;;;;;;;8.75;4.60;;;;;;;25.95;36.14;99229.59;5082827;28;20137;-60
2021/06/09 20:06:34;;;;;;;7.50;4.38;;;;;;;25.92;36.13;99228.84;5091007;28;20059;-62
2021/06/09 20:09:01;;;;;;;8.95;4.50;;;;;;;25.92;36.33;99236.00;5078857;28;20041;-62
2021/06/09 20:11:29;;;;;;;11.95;4.47;;;;;;;25.91;36.67;99234.28;5072308;28;20052;-62
2021/06/09 20:13:55;;;;;;;10.57;4.50;;;;;;;25.90;36.69;99232.53;5077099;28;20040;-59
2021/06/09 20:16:21;;;;;;;9.40;4.47;;;;;;;25.90;36.80;99243.19;5081499;28;20051;-60
2021/06/09 20:18:48;;;;;;;9.95;4.70;;;;;;;25.89;37.11;99249.50;5082992;28;20051;-60
2021/06/09 20:21:14;;;;;;;9.05;4.82;;;;;;;25.87;37.18;99248.78;5081369;28;20044;-60
2021/06/09 20:23:40;;;;;;;8.35;4.97;;;;;;;25.86;37.18;99247.03;5081070;28;20036;-60
2021/06/09 20:28:52;;;;;;;11.00;4.70;;;;;;;25.84;37.33;99248.97;5078108;28;20090;-60
2021/06/09 20:31:18;;;;;;;7.45;4.63;;;;;;;25.83;37.44;99252.63;5071842;28;20053;-60
2021/06/09 20:33:44;;;;;;;7.50;4.43;;;;;;;25.81;37.40;99252.72;5079291;28;20048;-60
2021/06/09 20:36:11;;;;;;;10.32;4.45;;;;;;;25.80;37.55;99259.00;5077279;28;20055;-59
2021/06/09 20:38:37;;;;;;;13.40;4.47;;;;;;;25.80;37.28;99258.16;5078307;28;20039;-59
2021/06/09 20:41:04;;;;;;;8.63;4.45;;;;;;;25.78;37.35;99258.25;5072214;28;20044;-61
2021/06/09 20:43:32;;;;;;;11.13;4.88;;;;;;;25.77;37.19;99258.38;5071568;28;20052;-60
2021/06/09 20:45:58;;;;;;;10.65;4.43;;;;;;;25.76;37.08;99262.84;5071903;28;20048;-60
2021/06/09 20:48:24;;;;;;;7.80;4.57;;;;;;;25.74;37.02;99260.31;5077205;28;20040;-59
2021/06/09 20:50:50;;;;;;;9.98;4.32;;;;;;;25.73;37.08;99263.06;5080668;28;20564;-61
2021/06/09 20:53:17;;;;;;;11.60;4.47;;;;;;;25.72;37.03;99267.53;5083252;28;20494;-61
2021/06/09 20:55:43;;;;;;;9.27;4.55;;;;;;;25.70;37.08;99266.78;5075847;28;20098;-61
2021/06/09 20:58:10;;;;;;;9.82;4.07;;;;;;;25.69;37.15;99283.75;5075601;28;20552;-61
2021/06/09 21:00:37;;;;;;;7.18;4.00;;;;;;;25.68;37.05;99281.19;5075395;28;20044;-62
2021/06/09 21:03:04;;;;;;;7.75;4.15;;;;;;;25.65;37.06;99287.59;5075428;28;20495;-61
2021/06/09 21:05:30;;;;;;;8.63;4.32;;;;;;;25.65;37.18;99292.94;5075355;28;20067;-62
2021/06/09 21:07:57;;;;;;;7.22;4.20;;;;;;;25.63;37.15;99283.31;5075732;28;20068;-62
2021/06/09 21:10:23;;;;;;;9.02;4.55;;;;;;;25.62;37.21;99281.63;5075532;28;20049;-61
2021/06/09 21:12:49;;;;;;;7.00;4.10;;;;;;;25.60;37.12;99279.03;5075797;28;20075;-62
2021/06/09 21:15:17;;;;;;;7.20;4.43;;;;;;;25.59;37.26;99268.47;5075267;28;20045;-62
2021/06/09 21:17:45;;;;;;;8.25;4.70;;;;;;;25.58;37.34;99269.44;5075136;28;20486;-62
2021/06/09 21:20:12;;;;;;;8.50;4.35;;;;;;;25.55;37.37;99275.81;5075664;28;20041;-62
2021/06/09 21:22:38;;;;;;;7.10;4.25;;;;;;;25.54;37.38;99274.13;5074889;28;20539;-62
2021/06/09 21:25:06;;;;;;;7.40;4.40;;;;;;;25.52;37.38;99276.88;5074589;28;20045;-62
2021/06/09 21:27:32;;;;;;;7.43;4.60;;;;;;;25.49;37.42;99277.13;5075304;28;20048;-62
2021/06/09 21:29:58;;;;;;;7.32;4.43;;;;;;;25.49;37.41;99281.56;5075222;28;20052;-62
2021/06/09 21:32:24;;;;;;;7.18;4.20;;;;;;;25.47;37.27;99284.34;5075081;28;20060;-62
2021/06/09 21:34:52;;;;;;;9.25;4.30;;;;;;;25.46;37.61;99281.78;5075290;28;20377;-62
2021/06/09 21:37:18;;;;;;;7.82;4.60;;;;;;;25.44;37.56;99281.03;5075357;28;20053;-62
2021/06/09 21:39:44;;;;;;;8.77;4.53;;;;;;;25.43;37.54;99282.00;5075411;28;20118;-62
2021/06/09 21:42:11;;;;;;;7.80;4.55;;;;;;;25.42;37.51;99277.63;5074812;28;20453;-62
2021/06/09 21:44:37;;;;;;;8.23;4.60;;;;;;;25.41;37.74;99281.22;5074867;28;20041;-62
2021/06/09 21:47:04;;;;;;;8.50;4.70;;;;;;;25.39;37.71;99280.47;5075176;28;20048;-62
2021/06/09 21:49:30;;;;;;;8.98;5.07;;;;;;;25.37;37.71;99275.25;5075087;28;20047;-62
2021/06/09 21:51:58;;;;;;;8.18;4.72;;;;;;;25.36;37.73;99281.56;5075246;28;20046;-61
2021/06/09 21:54:24;;;;;;;7.82;5.15;;;;;;;25.35;37.55;99287.84;5074930;28;20059;-61
2021/06/09 21:56:50;;;;;;;7.70;4.75;;;;;;;25.34;37.61;99283.47;5074672;28;20621;-62
2021/06/09 21:59:16;;;;;;;7.63;4.80;;;;;;;25.32;37.74;99288.06;5075096;28;20083;-62
2021/06/09 22:01:42;;;;;;;8.50;4.65;;;;;;;25.30;37.84;99282.81;5075154;28;20049;-62
2021/06/09 22:04:09;;;;;;;10.20;5.18;;;;;;;25.29;37.96;99282.91;5074299;28;20426;-62
2021/06/09 22:06:37;;;;;;;7.88;5.00;;;;;;;25.28;38.08;99284.72;5074101;28;20044;-62
2021/06/09 22:09:05;;;;;;;8.75;4.78;;;;;;;25.26;38.00;99281.31;5074597;28;20044;-61
2021/06/09 22:11:31;;;;;;;8.32;5.05;;;;;;;25.25;38.18;99284.06;5073970;28;20407;-62
2021/06/09 22:13:57;;;;;;;7.40;4.72;;;;;;;25.22;38.13;99279.81;5074867;28;20106;-62
2021/06/09 22:16:24;;;;;;;8.25;5.22;;;;;;;25.22;37.98;99285.13;5074220;28;20450;-62
2021/06/09 22:18:50;;;;;;;8.07;5.13;;;;;;;25.20;38.03;99283.47;5074207;28;20044;-62
2021/06/09 22:21:16;;;;;;;7.85;5.07;;;;;;;25.18;38.31;99283.56;5074044;28;20090;-62
2021/06/09 22:23:42;;;;;;;8.32;5.28;;;;;;;25.18;38.26;99282.72;5074076;28;20052;-62
2021/06/09 22:26:10;;;;;;;9.05;4.97;;;;;;;25.16;38.20;99285.47;5074015;28;20094;-62
2021/06/09 22:28:36;;;;;;;7.80;4.63;;;;;;;25.15;38.26;99286.47;5074320;28;20045;-62
2021/06/09 22:31:03;;;;;;;8.57;5.00;;;;;;;25.12;38.37;99276.81;5074294;28;20083;-61
2021/06/09 22:33:29;;;;;;;9.23;5.28;;;;;;;25.12;38.44;99278.66;5074367;28;20059;-61
2021/06/09 22:35:55;;;;;;;7.75;4.88;;;;;;;25.11;38.51;99271.63;5073775;28;20041;-62
2021/06/09 22:38:21;;;;;;;8.77;5.43;;;;;;;25.09;38.52;99270.88;5073884;28;20048;-62
2021/06/09 22:40:48;;;;;;;8.15;5.18;;;;;;;25.09;38.52;99268.19;5072729;28;20048;-62
2021/06/09 22:43:15;;;;;;;7.75;5.13;;;;;;;25.08;38.36;99261.16;5073411;28;20498;-62
2021/06/09 22:45:41;;;;;;;7.78;5.25;;;;;;;25.06;38.45;99266.56;5073805;28;20083;-62
2021/06/09 22:48:08;;;;;;;9.10;4.85;;;;;;;25.06;38.62;99260.41;5081249;28;20044;-62
2021/06/09 22:50:34;;;;;;;7.78;4.85;;;;;;;25.05;38.52;99261.38;5084043;28;20068;-62
2021/06/09 22:53:00;;;;;;;9.20;5.50;;;;;;;25.04;38.57;99268.47;5073705;28;20646;-62
2021/06/09 22:55:27;;;;;;;7.43;5.28;;;;;;;25.03;38.55;99269.47;5073505;28;20047;-62
2021/06/09 22:57:53;;;;;;;8.73;5.30;;;;;;;25.02;38.58;99257.06;5073391;28;20049;-62
2021/06/09 23:00:22;;;;;;;9.45;4.95;;;;;;;25.01;38.70;99259.81;5073959;28;20045;-62
2021/06/09 23:02:49;;;;;;;7.70;5.10;;;;;;;25.00;38.76;99261.66;5073453;28;20055;-62
2021/06/09 23:05:15;;;;;;;9.23;5.30;;;;;;;25.00;38.58;99258.97;5073259;28;20098;-62
2021/06/09 23:07:41;;;;;;;10.40;5.60;;;;;;;24.99;38.80;99261.75;5073067;28;20040;-62
2021/06/09 23:10:08;;;;;;;8.35;5.30;;;;;;;24.98;38.68;99257.38;5073596;28;20101;-62
2021/06/09 23:12:34;;;;;;;8.70;5.25;;;;;;;24.97;38.74;99269.84;5073323;28;20040;-62
2021/06/09 23:15:01;;;;;;;9.02;5.13;;;;;;;24.96;38.92;99276.97;5073509;28;20402;-62
2021/06/09 23:17:28;;;;;;;8.45;5.20;;;;;;;24.94;38.78;99273.56;5072112;28;20513;-62
2021/06/09 23:19:54;;;;;;;8.23;5.47;;;;;;;24.93;38.85;99258.53;5073669;28;20048;-62
2021/06/09 23:22:21;;;;;;;7.63;5.35;;;;;;;24.93;38.78;99271.88;5073174;28;20106;-62
2021/06/09 23:24:47;;;;;;;7.97;5.43;;;;;;;24.93;38.78;99273.66;5073017;28;20041;-62
2021/06/09 23:27:13;;;;;;;8.43;5.32;;;;;;;24.92;38.82;99267.47;5073072;28;20048;-62
2021/06/09 23:29:39;;;;;;;8.25;5.80;;;;;;;24.89;38.93;99274.81;5073469;28;20402;-62
2021/06/09 23:32:07;;;;;;;8.75;5.30;;;;;;;24.89;39.00;99269.47;5072722;28;20063;-62
2021/06/09 23:34:35;;;;;;;7.80;5.60;;;;;;;24.89;39.00;99270.34;5072814;28;20102;-62
2021/06/09 23:37:01;;;;;;;8.68;5.70;;;;;;;24.88;39.06;99276.63;5072720;28;20051;-62
2021/06/09 23:39:27;;;;;;;7.85;5.57;;;;;;;24.87;39.15;99272.28;5073078;28;20071;-62
2021/06/09 23:41:53;;;;;;;9.13;5.68;;;;;;;24.87;39.00;99264.28;5072251;28;20045;-62
2021/06/09 23:44:19;;;;;;;9.32;5.53;;;;;;;24.85;39.16;99263.47;5072938;28;20049;-62
2021/06/09 23:46:46;;;;;;;10.23;5.32;;;;;;;24.84;38.92;99268.94;5072439;28;20245;-62
2021/06/09 23:49:13;;;;;;;7.78;5.40;;;;;;;24.83;39.02;99265.41;5072938;28;20056;-62
2021/06/09 23:54:25;;;;;;;8.93;6.10;;;;;;;24.82;39.09;99270.84;5072543;28;20133;-62
2021/06/09 23:56:51;;;;;;;7.32;5.32;;;;;;;24.80;39.09;99268.28;5072381;28;20048;-62
2021/06/09 23:59:18;;;;;;;9.38;5.85;;;;;;;24.80;39.26;99267.44;5072645;28;20052;-62
